Portada
METAR-TAF:

METAR-TAF

Aeroports :

Rundu, Namíbia

latitud: 17-57-20S, longitud: 019-43-25E, altitud: 1106 m

Observació

L'informe es va fer fa 1 hora i 10 minuts, a les 13:00 UTC
Vent 4 kt del Est
Temperatura 21°C
Humitat 23%
Pressió 1022 hPa
Visibilitat 10 km o més
sense núvols per sota de 1500 mi sense presència de cumulonimbus.

METAR: FYRU 031300Z 09004KT CAVOK 21/M01 Q1022

Hora: 16:10 (14:10 UTC)

Pronòstic

L'informe es va fer fa 3 hores i 10 minuts, a les 11:00 UTC
Pronòstic vàlid del 03 a les 12 UTC al 03 a les 21 UTC
Vent 7 kt del Est
Visibilitat 10 km o més
sense núvols per sota de 1500 mi sense presència de cumulonimbus.

TAF: FYRU 031100Z 0312/0321 10007KT CAVOK

Observacions i pronòstics meteorològics de més de 4000 aeroports (METAR i TAF).

Les estacions disponibles són els punts grocs i vermells al mapa.

Posi el ratolí al punt desitjat per veure el nom de l'estació.

Feu clic per veure les observacions i els pronòstics meteorològics.

Per canviar el mapa: feu clic els botons verds amb una creu de color negre per apropar; al botó verd amb un guió per allunyar la imatge; o en les fletxes verdes per a mapes adjacents.


METAR-TAF: